createdAt,value
2017-09-09T00:02:00.554Z,43.97
2017-09-09T00:04:32.360Z,43.97
2017-09-09T00:07:03.800Z,43.93
2017-09-09T00:09:34.902Z,43.93
2017-09-09T00:12:06.825Z,43.89
2017-09-09T00:14:39.084Z,43.89
2017-09-09T00:17:14.158Z,43.86
2017-09-09T00:19:51.299Z,43.78
2017-09-09T00:22:22.406Z,43.77
2017-09-09T00:24:55.015Z,43.75
2017-09-09T00:27:26.188Z,43.76
2017-09-09T00:29:58.182Z,43.76
2017-09-09T00:32:29.735Z,43.77
2017-09-09T00:35:01.666Z,43.68
2017-09-09T00:37:33.252Z,42.34
2017-09-09T00:40:05.346Z,42.50
2017-09-09T00:42:37.088Z,42.28
2017-09-09T00:45:08.922Z,42.54
2017-09-09T00:47:40.633Z,42.12
2017-09-09T00:50:14.567Z,42.53
2017-09-09T00:52:47.394Z,42.20
2017-09-09T00:55:20.335Z,43.04
2017-09-09T00:57:52.527Z,43.30
2017-09-09T01:00:24.700Z,42.97
2017-09-09T01:02:56.829Z,42.87
2017-09-09T01:05:28.966Z,43.34
2017-09-09T01:08:01.217Z,43.11
2017-09-09T01:10:33.684Z,43.31
2017-09-09T01:13:05.537Z,43.22
2017-09-09T01:15:37.125Z,43.19
2017-09-09T01:18:08.835Z,42.56
2017-09-09T01:20:40.812Z,43.23
2017-09-09T01:23:18.631Z,43.26
2017-09-09T01:25:53.182Z,43.38
2017-09-09T01:28:27.429Z,42.75
2017-09-09T01:30:58.995Z,42.47
2017-09-09T01:33:30.266Z,42.15
2017-09-09T01:36:02.353Z,42.51
2017-09-09T01:38:33.994Z,42.79
2017-09-09T01:41:05.017Z,42.57
2017-09-09T01:43:37.754Z,43.03
2017-09-09T01:46:13.244Z,42.62
2017-09-09T01:48:44.710Z,43.28
2017-09-09T01:51:19.865Z,42.70
2017-09-09T01:53:52.147Z,42.47
2017-09-09T01:56:24.304Z,43.98
2017-09-09T01:58:55.981Z,43.43
2017-09-09T02:01:29.897Z,43.56
2017-09-09T02:04:04.120Z,43.49
2017-09-09T02:06:36.156Z,43.68
2017-09-09T02:09:07.968Z,43.23
2017-09-09T02:11:40.613Z,42.97
2017-09-09T02:14:16.264Z,42.84
2017-09-09T02:16:48.106Z,43.32
2017-09-09T02:19:19.809Z,43.38
2017-09-09T02:21:51.992Z,43.27
2017-09-09T02:24:23.469Z,43.74
2017-09-09T02:26:55.621Z,42.93
2017-09-09T02:29:27.467Z,43.48
2017-09-09T02:31:59.331Z,44.11
2017-09-09T02:34:31.650Z,43.63
2017-09-09T02:37:02.957Z,43.85
2017-09-09T02:39:34.368Z,43.95
2017-09-09T02:42:05.918Z,43.99
2017-09-09T02:44:47.577Z,43.70
2017-09-09T02:47:18.666Z,43.94
2017-09-09T02:49:50.177Z,44.74
2017-09-09T02:52:22.153Z,44.46
2017-09-09T02:54:55.308Z,43.62
2017-09-09T02:57:27.890Z,44.38
2017-09-09T03:00:00.341Z,44.95
2017-09-09T03:02:32.311Z,44.87
2017-09-09T03:05:04.130Z,44.49
2017-09-09T03:07:36.833Z,44.56
2017-09-09T03:10:09.431Z,45.24
2017-09-09T03:12:41.630Z,45.33
2017-09-09T03:15:15.276Z,44.32
2017-09-09T03:17:47.170Z,44.91
2017-09-09T03:20:19.116Z,45.33
2017-09-09T03:22:51.504Z,44.74
2017-09-09T03:25:23.152Z,44.79
2017-09-09T03:27:55.273Z,44.92
2017-09-09T03:30:26.369Z,45.97
2017-09-09T03:32:58.110Z,45.45
2017-09-09T03:35:30.127Z,44.99
2017-09-09T03:38:01.692Z,44.45
2017-09-09T03:40:33.446Z,44.82
2017-09-09T03:43:05.493Z,43.95
2017-09-09T03:45:38.237Z,43.87
2017-09-09T03:48:11.873Z,43.77
2017-09-09T03:50:43.823Z,43.65
2017-09-09T03:53:17.614Z,43.97
2017-09-09T03:55:49.446Z,44.23
2017-09-09T03:58:21.393Z,44.21
2017-09-09T04:00:54.009Z,44.25
2017-09-09T04:03:26.137Z,44.49
2017-09-09T04:05:58.763Z,44.31
2017-09-09T04:08:31.090Z,44.32
2017-09-09T04:11:02.798Z,44.85
2017-09-09T04:13:34.465Z,44.59
2017-09-09T04:16:07.146Z,43.78
2017-09-09T04:18:38.956Z,44.18
2017-09-09T04:21:12.655Z,44.23
2017-09-09T04:23:44.503Z,44.24
2017-09-09T04:26:16.949Z,44.83
2017-09-09T04:28:49.169Z,45.46
2017-09-09T04:31:21.385Z,44.95
2017-09-09T04:33:53.138Z,45.46
2017-09-09T04:36:24.729Z,45.49
2017-09-09T04:38:56.859Z,44.75
2017-09-09T04:41:28.479Z,45.78
2017-09-09T04:44:01.324Z,44.91
2017-09-09T04:46:32.693Z,44.61
2017-09-09T04:49:04.597Z,45.01
2017-09-09T04:51:36.159Z,44.54
2017-09-09T04:54:08.148Z,43.96
2017-09-09T04:56:40.085Z,44.28
2017-09-09T04:59:12.098Z,43.59
2017-09-09T05:01:43.260Z,43.28
2017-09-09T05:04:19.095Z,43.57
2017-09-09T05:06:51.030Z,43.80
2017-09-09T05:09:22.942Z,43.74
2017-09-09T05:11:56.343Z,43.58
2017-09-09T05:14:28.870Z,44.19
2017-09-09T05:17:01.102Z,44.35
2017-09-09T05:19:32.857Z,44.01
2017-09-09T05:22:05.453Z,44.30
2017-09-09T05:24:36.860Z,44.01
2017-09-09T05:27:08.340Z,43.71
2017-09-09T05:29:40.422Z,43.75
2017-09-09T05:32:15.769Z,43.58
2017-09-09T05:34:47.557Z,43.34
2017-09-09T05:37:19.460Z,43.17
2017-09-09T05:39:51.371Z,43.98
2017-09-09T05:42:23.989Z,43.70
2017-09-09T05:44:55.133Z,44.26
2017-09-09T05:47:26.226Z,43.63
2017-09-09T05:49:57.531Z,43.38
2017-09-09T05:52:31.222Z,43.16
2017-09-09T05:55:02.822Z,43.76
2017-09-09T05:57:34.755Z,43.45
2017-09-09T06:00:07.011Z,43.80
2017-09-09T06:02:39.595Z,43.29
2017-09-09T06:05:13.230Z,43.92
2017-09-09T06:07:44.743Z,44.07
2017-09-09T06:10:17.795Z,44.10
2017-09-09T06:12:49.817Z,43.95
2017-09-09T06:15:22.236Z,44.09
2017-09-09T06:17:55.137Z,43.92
2017-09-09T06:20:26.111Z,43.88
2017-09-09T06:22:57.961Z,43.87
2017-09-09T06:25:31.979Z,43.51
2017-09-09T06:28:03.114Z,43.29
2017-09-09T06:30:38.001Z,43.35
2017-09-09T06:33:12.395Z,43.59
2017-09-09T06:35:45.722Z,43.77
2017-09-09T06:38:17.744Z,43.65
2017-09-09T06:40:49.130Z,43.69
2017-09-09T06:43:21.194Z,43.82
2017-09-09T06:45:52.556Z,43.69
2017-09-09T06:48:24.234Z,43.38
2017-09-09T06:50:55.872Z,43.90
2017-09-09T06:53:29.738Z,43.60
2017-09-09T06:56:01.708Z,43.98
2017-09-09T06:58:33.606Z,43.64
2017-09-09T07:01:05.853Z,43.75
2017-09-09T07:03:37.050Z,44.19
2017-09-09T07:06:08.106Z,44.47
2017-09-09T07:08:40.448Z,44.29
2017-09-09T07:11:15.432Z,43.92
2017-09-09T07:13:48.661Z,44.26
2017-09-09T07:16:20.065Z,43.77
2017-09-09T07:18:51.350Z,43.28
2017-09-09T07:21:25.637Z,43.88
2017-09-09T07:23:57.940Z,43.06
2017-09-09T07:26:31.338Z,43.27
2017-09-09T07:29:03.948Z,43.28
2017-09-09T07:31:37.082Z,42.95
2017-09-09T07:34:08.666Z,43.41
2017-09-09T07:36:41.720Z,43.09
2017-09-09T07:39:15.822Z,44.74
2017-09-09T07:41:48.396Z,45.12
2017-09-09T07:44:20.880Z,45.21
2017-09-09T07:46:52.024Z,45.15
2017-09-09T07:49:23.761Z,45.00
2017-09-09T07:51:55.162Z,44.95
2017-09-09T07:54:28.534Z,45.00
2017-09-09T07:57:00.703Z,44.97
2017-09-09T07:59:32.025Z,45.06
2017-09-09T08:02:03.160Z,45.19
2017-09-09T08:04:34.631Z,45.26
2017-09-09T08:07:24.352Z,45.43
2017-09-09T08:09:55.693Z,45.58
2017-09-09T08:12:28.153Z,45.72
2017-09-09T08:14:59.487Z,46.36
2017-09-09T08:17:30.949Z,47.34
2017-09-09T08:20:02.392Z,48.07
2017-09-09T08:22:33.714Z,49.75
2017-09-09T08:25:05.779Z,50.90
2017-09-09T08:27:37.638Z,49.69
2017-09-09T08:30:09.425Z,48.78
2017-09-09T08:32:41.892Z,48.21
2017-09-09T08:35:31.383Z,47.77
2017-09-09T08:38:04.319Z,47.59
2017-09-09T08:40:37.368Z,47.44
2017-09-09T08:43:12.786Z,47.59
2017-09-09T08:45:45.320Z,47.33
2017-09-09T08:48:17.861Z,47.37
2017-09-09T08:50:49.157Z,47.10
2017-09-09T08:53:20.918Z,46.76
2017-09-09T08:55:52.983Z,46.67
2017-09-09T08:58:24.260Z,46.60
2017-09-09T09:00:55.444Z,46.59
2017-09-09T09:03:27.900Z,46.46
2017-09-09T09:05:59.168Z,46.33
2017-09-09T09:08:30.418Z,46.30
2017-09-09T09:11:01.857Z,46.29
2017-09-09T09:13:33.469Z,46.15
2017-09-09T09:16:05.483Z,46.08
2017-09-09T09:18:36.868Z,46.01
2017-09-09T09:21:09.079Z,45.85
2017-09-09T09:23:41.432Z,45.77
2017-09-09T09:26:18.623Z,45.69
2017-09-09T09:28:52.263Z,45.56
2017-09-09T09:31:23.813Z,45.78
2017-09-09T09:33:55.531Z,45.80
2017-09-09T09:36:27.050Z,45.60
2017-09-09T09:38:58.622Z,45.54
2017-09-09T09:41:31.326Z,45.50
2017-09-09T09:44:03.348Z,45.34
2017-09-09T09:46:34.963Z,45.27
2017-09-09T09:49:07.101Z,45.17
2017-09-09T09:51:40.231Z,45.25
2017-09-09T09:54:12.243Z,45.25
2017-09-09T09:56:44.025Z,45.21
2017-09-09T09:59:15.418Z,45.23
2017-09-09T10:01:47.447Z,45.10
2017-09-09T10:04:19.926Z,45.12
2017-09-09T10:06:51.637Z,45.09
2017-09-09T10:09:23.499Z,45.01
2017-09-09T10:11:55.609Z,44.98
2017-09-09T10:14:27.136Z,44.90
2017-09-09T10:16:58.704Z,44.94
2017-09-09T10:19:30.018Z,44.94
2017-09-09T10:22:02.348Z,44.99
2017-09-09T10:24:33.794Z,44.98
2017-09-09T10:27:05.992Z,44.91
2017-09-09T10:29:37.325Z,44.89
2017-09-09T10:32:09.280Z,44.90
2017-09-09T10:34:40.729Z,44.88
2017-09-09T10:37:13.419Z,44.88
2017-09-09T10:39:46.003Z,44.85
2017-09-09T10:42:18.422Z,44.80
2017-09-09T10:44:49.658Z,44.90
2017-09-09T10:47:21.791Z,44.83
2017-09-09T10:49:53.609Z,44.73
2017-09-09T10:52:26.093Z,44.78
2017-09-09T10:54:57.760Z,44.68
2017-09-09T10:57:29.147Z,44.75
2017-09-09T11:00:00.874Z,44.73
2017-09-09T11:02:33.959Z,44.70
2017-09-09T11:05:07.917Z,44.66
2017-09-09T11:07:41.879Z,44.67
2017-09-09T11:10:14.448Z,44.73
2017-09-09T11:12:46.621Z,44.74
2017-09-09T11:18:57.903Z,44.72
2017-09-09T11:21:29.448Z,44.53
2017-09-09T11:24:02.573Z,44.57
2017-09-09T11:26:34.136Z,44.61
2017-09-09T11:29:05.913Z,44.68
2017-09-09T11:31:37.130Z,44.65
2017-09-09T11:34:09.607Z,44.67
2017-09-09T11:36:41.185Z,44.69
2017-09-09T11:39:12.568Z,44.71
2017-09-09T11:41:44.466Z,44.69
2017-09-09T11:44:20.214Z,44.59
2017-09-09T11:46:53.615Z,44.60
2017-09-09T11:49:26.268Z,44.60
2017-09-09T11:51:58.197Z,44.63
2017-09-09T11:54:30.331Z,44.65
2017-09-09T11:57:01.751Z,44.64
2017-09-09T11:59:34.039Z,44.62
2017-09-09T12:02:07.872Z,44.65
2017-09-09T12:04:39.490Z,44.63
2017-09-09T12:07:13.979Z,44.68
2017-09-09T12:09:45.233Z,44.70
2017-09-09T12:12:19.382Z,44.66
2017-09-09T12:14:50.515Z,44.65
2017-09-09T12:17:22.498Z,44.66
2017-09-09T12:19:54.052Z,44.69
2017-09-09T12:22:25.382Z,44.66
2017-09-09T12:24:56.771Z,44.62
2017-09-09T12:27:28.521Z,44.62
2017-09-09T12:30:00.000Z,44.63
2017-09-09T12:32:31.514Z,44.59
2017-09-09T12:35:03.222Z,44.57
2017-09-09T12:37:35.375Z,44.58
2017-09-09T12:40:07.546Z,44.58
2017-09-09T12:42:39.393Z,44.57
2017-09-09T12:45:12.348Z,44.62
2017-09-09T12:47:43.766Z,44.58
2017-09-09T12:50:20.721Z,44.60
2017-09-09T12:52:52.256Z,44.58
2017-09-09T12:55:23.854Z,44.58
2017-09-09T12:57:55.307Z,44.60
2017-09-09T13:00:26.490Z,44.59
2017-09-09T13:02:58.423Z,44.61
2017-09-09T13:05:30.421Z,44.60
2017-09-09T13:08:01.885Z,44.61
2017-09-09T13:10:33.488Z,44.60
2017-09-09T13:13:06.235Z,44.58
2017-09-09T13:15:38.078Z,44.54
2017-09-09T13:18:12.787Z,44.58
2017-09-09T13:20:44.221Z,44.56
2017-09-09T13:23:15.334Z,44.59
2017-09-09T13:25:46.693Z,44.55
2017-09-09T13:28:18.877Z,44.57
2017-09-09T13:30:50.318Z,44.57
2017-09-09T13:33:22.184Z,44.53
2017-09-09T13:35:53.346Z,44.51
2017-09-09T13:38:25.284Z,44.53
2017-09-09T13:40:57.269Z,44.52
2017-09-09T13:43:28.944Z,44.51
2017-09-09T13:46:01.032Z,44.50
2017-09-09T13:48:32.518Z,44.51
2017-09-09T13:51:03.696Z,44.51
2017-09-09T13:53:35.570Z,44.49
2017-09-09T13:56:06.923Z,44.47
2017-09-09T13:58:38.178Z,44.45
2017-09-09T14:01:12.443Z,44.46
2017-09-09T14:03:44.882Z,44.45
2017-09-09T14:06:17.585Z,44.39
2017-09-09T14:08:49.017Z,44.47
2017-09-09T14:11:20.403Z,44.49
2017-09-09T14:19:48.439Z,44.29
2017-09-09T14:22:46.369Z,44.13
2017-09-09T14:25:51.984Z,44.16
2017-09-09T14:28:30.448Z,44.15
2017-09-09T14:31:50.988Z,43.96
2017-09-09T14:34:25.311Z,44.16
2017-09-09T14:36:57.254Z,44.24
2017-09-09T14:39:30.219Z,44.36
2017-09-09T14:42:02.681Z,44.38
2017-09-09T14:44:34.431Z,44.38
2017-09-09T14:47:05.717Z,44.32
2017-09-09T14:49:38.125Z,44.40
2017-09-09T14:52:11.999Z,44.40
2017-09-09T14:54:46.268Z,44.38
2017-09-09T15:03:44.259Z,44.13
2017-09-09T15:06:23.159Z,44.11
2017-09-09T15:09:01.593Z,44.11
2017-09-09T15:11:44.222Z,44.08
2017-09-09T15:14:43.104Z,43.98
2017-09-09T15:17:38.884Z,43.98
2017-09-09T15:20:56.596Z,44.04
2017-09-09T15:23:50.026Z,44.02
2017-09-09T15:26:45.488Z,44.05
2017-09-09T15:37:32.639Z,44.06
2017-09-09T15:40:32.419Z,44.17
2017-09-09T15:47:10.458Z,44.15
2017-09-09T15:56:30.133Z,44.07
2017-09-09T15:59:33.811Z,44.05
2017-09-09T16:02:25.238Z,43.96
2017-09-09T16:05:30.499Z,43.94
2017-09-09T16:08:21.811Z,43.95
2017-09-09T16:14:58.868Z,43.95
2017-09-09T16:20:42.041Z,43.95
2017-09-09T16:28:36.537Z,44.04
2017-09-09T16:31:09.918Z,44.14
2017-09-09T16:33:44.398Z,44.22
2017-09-09T16:36:18.254Z,44.28
2017-09-09T16:38:50.074Z,44.36
2017-09-09T16:41:23.002Z,44.44
2017-09-09T16:43:55.518Z,44.45
2017-09-09T16:46:26.582Z,44.98
2017-09-09T16:48:58.250Z,44.66
2017-09-09T16:51:33.505Z,44.70
2017-09-09T16:54:05.127Z,44.62
2017-09-09T16:56:36.477Z,44.59
2017-09-09T16:59:08.415Z,44.58
2017-09-09T17:01:39.690Z,44.57
2017-09-09T17:04:12.372Z,44.63
2017-09-09T17:06:43.694Z,44.65
2017-09-09T17:09:16.914Z,44.64
2017-09-09T17:11:47.977Z,44.65
2017-09-09T17:14:19.801Z,44.70
2017-09-09T17:16:51.750Z,44.72
2017-09-09T17:19:22.958Z,44.71
2017-09-09T17:21:54.925Z,44.72
2017-09-09T17:24:27.405Z,44.75
2017-09-09T17:26:58.611Z,44.76
2017-09-09T17:29:29.918Z,44.81
2017-09-09T17:32:00.950Z,44.81
2017-09-09T17:34:33.027Z,44.83
2017-09-09T17:37:05.029Z,44.85
2017-09-09T17:39:36.276Z,44.85
2017-09-09T17:42:07.704Z,44.81
2017-09-09T17:44:40.117Z,44.91
2017-09-09T17:47:12.867Z,44.88
2017-09-09T17:49:44.424Z,44.89
2017-09-09T17:52:17.032Z,44.84
2017-09-09T17:54:48.946Z,44.93
2017-09-09T17:57:20.280Z,44.96
2017-09-09T17:59:51.422Z,44.98
2017-09-09T18:02:23.036Z,44.97
2017-09-09T18:04:54.602Z,44.95
2017-09-09T18:07:29.150Z,44.96
2017-09-09T18:10:00.344Z,44.97
2017-09-09T18:12:32.347Z,44.95
2017-09-09T18:15:04.026Z,44.95
2017-09-09T18:17:35.831Z,44.97
2017-09-09T18:20:08.115Z,45.00
2017-09-09T18:22:41.063Z,45.08
2017-09-09T18:25:18.080Z,45.06
2017-09-09T18:27:50.327Z,45.04
2017-09-09T18:30:22.084Z,45.01
2017-09-09T18:32:54.236Z,45.01
2017-09-09T18:35:26.238Z,45.06
2017-09-09T18:37:57.879Z,45.04
2017-09-09T18:40:29.919Z,45.04
2017-09-09T18:43:01.783Z,45.03
2017-09-09T18:45:34.489Z,45.03
2017-09-09T18:48:07.570Z,45.02
2017-09-09T18:50:41.757Z,45.02
2017-09-09T18:53:18.073Z,44.99
2017-09-09T18:55:52.573Z,44.99
2017-09-09T18:58:26.468Z,45.06
2017-09-09T19:00:58.162Z,45.08
2017-09-09T19:03:30.987Z,45.11
2017-09-09T19:06:03.223Z,45.10
2017-09-09T19:08:35.927Z,45.15
2017-09-09T19:11:08.785Z,45.15
2017-09-09T19:13:42.907Z,45.17
2017-09-09T19:16:19.936Z,45.14
2017-09-09T19:18:53.329Z,45.14
2017-09-09T19:21:25.258Z,45.16
2017-09-09T19:23:56.389Z,45.17
2017-09-09T19:26:29.471Z,45.16
2017-09-09T19:29:01.694Z,45.18
2017-09-09T19:31:36.291Z,45.18
2017-09-09T19:34:07.795Z,45.16
2017-09-09T19:36:40.265Z,45.20
2017-09-09T19:39:15.798Z,45.18
2017-09-09T19:41:46.987Z,45.23
2017-09-09T19:44:19.424Z,45.19
2017-09-09T19:46:50.609Z,45.21
2017-09-09T19:49:21.817Z,45.24
2017-09-09T19:51:53.782Z,45.23
2017-09-09T19:54:26.795Z,45.21
2017-09-09T19:56:59.683Z,45.25
2017-09-09T19:59:31.485Z,45.27
2017-09-09T20:02:03.130Z,45.25
2017-09-09T20:04:37.141Z,45.27
2017-09-09T20:07:09.138Z,45.26
2017-09-09T20:09:41.669Z,45.25
2017-09-09T20:12:17.289Z,45.28
2017-09-09T20:14:50.091Z,45.22
2017-09-09T20:17:22.971Z,45.30
2017-09-09T20:19:55.412Z,45.32
2017-09-09T20:22:26.530Z,45.27
2017-09-09T20:24:58.330Z,45.27
2017-09-09T20:27:29.886Z,45.30
2017-09-09T20:30:01.487Z,45.30
2017-09-09T20:32:33.689Z,45.34
2017-09-09T20:35:05.205Z,45.36
2017-09-09T20:37:36.433Z,45.36
2017-09-09T20:40:09.310Z,45.35
2017-09-09T20:42:42.588Z,45.36
2017-09-09T20:45:17.820Z,45.33
2017-09-09T20:47:49.614Z,45.67
2017-09-09T20:50:21.427Z,45.48
2017-09-09T20:52:52.953Z,45.44
2017-09-09T20:55:24.552Z,45.45
2017-09-09T20:57:56.491Z,45.45
2017-09-09T21:00:29.524Z,45.47
2017-09-09T21:03:00.698Z,45.47
2017-09-09T21:05:33.949Z,45.42
2017-09-09T21:08:06.143Z,45.42
2017-09-09T21:10:37.929Z,45.41
2017-09-09T21:13:10.183Z,45.36
2017-09-09T21:15:43.869Z,45.43
2017-09-09T21:18:15.124Z,45.44
2017-09-09T21:20:46.826Z,45.42
2017-09-09T21:23:18.120Z,45.48
2017-09-09T21:25:50.544Z,45.53
2017-09-09T21:28:22.111Z,45.52
2017-09-09T21:30:53.481Z,45.47
2017-09-09T21:33:25.111Z,45.45
2017-09-09T21:35:56.548Z,45.48
2017-09-09T21:38:27.799Z,45.47
2017-09-09T21:40:59.554Z,45.44
2017-09-09T21:43:30.724Z,45.43
2017-09-09T21:46:02.567Z,45.44
2017-09-09T21:48:35.444Z,45.47
2017-09-09T21:51:06.835Z,45.47
2017-09-09T21:53:39.163Z,45.46
2017-09-09T21:56:17.762Z,45.44
2017-09-09T21:58:49.359Z,45.47
2017-09-09T22:01:21.591Z,45.51
2017-09-09T22:03:54.282Z,45.52
2017-09-09T22:06:26.202Z,45.51
2017-09-09T22:08:57.379Z,45.50
2017-09-09T22:11:28.745Z,45.56
2017-09-09T22:14:00.025Z,45.54
2017-09-09T22:16:31.780Z,45.52
2017-09-09T22:19:03.259Z,45.49
2017-09-09T22:21:34.771Z,45.48
2017-09-09T22:24:07.034Z,45.47
2017-09-09T22:26:38.681Z,45.48
2017-09-09T22:29:11.881Z,45.47
2017-09-09T22:31:43.875Z,45.49
2017-09-09T22:34:17.562Z,45.49
2017-09-09T22:36:49.939Z,45.47
2017-09-09T22:39:21.700Z,45.46
2017-09-09T22:41:52.981Z,45.48
2017-09-09T22:44:24.632Z,45.49
2017-09-09T22:46:56.053Z,45.55
2017-09-09T22:49:27.372Z,45.53
2017-09-09T22:51:58.361Z,45.53
2017-09-09T22:54:33.990Z,45.50
2017-09-09T22:57:04.986Z,45.42
2017-09-09T22:59:36.265Z,45.73
2017-09-09T23:02:07.363Z,45.74
2017-09-09T23:04:38.799Z,46.06
2017-09-09T23:07:12.335Z,45.81
2017-09-09T23:09:43.666Z,46.09
2017-09-09T23:12:14.934Z,46.55
2017-09-09T23:14:46.087Z,46.86
2017-09-09T23:17:18.295Z,46.96
2017-09-09T23:19:49.829Z,47.17
2017-09-09T23:22:21.916Z,47.44
2017-09-09T23:24:53.967Z,47.19
2017-09-09T23:27:25.613Z,47.27
2017-09-09T23:29:57.148Z,47.36
2017-09-09T23:32:29.798Z,47.69
2017-09-09T23:35:03.116Z,47.34
2017-09-09T23:37:34.853Z,47.73
2017-09-09T23:40:06.222Z,47.83
2017-09-09T23:42:38.094Z,47.56
2017-09-09T23:45:09.276Z,47.84
2017-09-09T23:47:42.139Z,48.03
2017-09-09T23:50:16.533Z,48.59
2017-09-09T23:52:47.545Z,48.52
2017-09-09T23:55:18.482Z,48.88
2017-09-09T23:57:49.468Z,48.72
